Terminal Aerodrome Forecast
Issued by NWS Wilmington, OH

Current Version | Previous Version | Graphics & Text | Print | Product List | Glossary On
Versions: 1 2 3 4 5 6 7 8 9 10 11 12 13 14 15 16 17
000
FTUS41 KILN 271500 AAB
TAFDAY
TAF AMD
KDAY 271523Z 2715/2812 33014KT P6SM BKN025 OVC035
     FM271900 32014G22KT P6SM BKN035
     FM280100 32009KT P6SM FEW040
     FM281100 36009KT P6SM SCT035=

USA.gov is the U.S. government's official web portal to all federal, state and local government web resources and services.